Lynchburg, VA (24504)

8:46 PM EDT on September 01, 2015 (GMT -0400)
Concord Turnpike | | Change Station
CLOSE
Current Station
Personal Weather Station
Location: Lynchburg, VA
Elevation: 543 ft
Nearby Weather Stations

Elev 543 ft 37.40 °N, 79.11 °W | Updated 2 minutes ago

Partly Cloudy
Partly Cloudy
77.9 °F
Feels Like 80 °F
N
1.8
Wind Variable Wind from SSE
Gusts 1.8 mph

Today
High -- | Low -- °F
--% Chance of Precip.
Yesterday
High -- | Low -- °F
Precip. -- in
6:46 AM 7:45 PM
Waning Gibbous, 85% visible
Pressure 30.07 in
Visibility 10.0 miles
Clouds Clear
Heat Index 80 °F
Dew Point 70 °F
Humidity 76%
Rainfall 0.00 in
Snow Depth Not available.
UV 0 out of 12
Pollen 9.10 out of 12
Air Quality Not available.
Flu Activity Not available.
METAR KLYH 012354Z 32003KT 10SM CLR 27/19 A3009 RMK AO2 SLP181 T02670194 10328 20267 53004
Pressure 30.07 in
Visibility 10.0 miles
Clouds Clear
Heat Index 80 °F
Dew Point 70 °F
Humidity 76%
Rainfall 0.00 in
Snow Depth Not available.
UV 0 out of 12
Pollen 9.10 out of 12
Air Quality Not available.
Flu Activity Not available.
METAR KLYH 012354Z 32003KT 10SM CLR 27/19 A3009 RMK AO2 SLP181 T02670194 10328 20267 53004

10-Day Weather Forecast

×

Almanac

Astronomy

Sep. 01, 2015 Rise Set
Actual Time
Civil Twilight
Nautical Twilight
Astronomical Twilight
Moon
Length of Visible Light
Length of Day
Tomorrow will be .
, % of the Moon is Illuminated

Today's Extremes

State Highs State Lows

Community

WunderPhotos

Upload Photos

1,851,658 photos uploaded!

WunderBlogs® & News

Nearby

Air Quality

  Air Quality AQ Index Pollutant
Not available.

Snow Depth

Station Depth Elevation

Earthquake Activity

City Distance Mag. Time & Date
Minimum magnitude displayed is 2.5.

Coastal Water Temperatures

Place Temperature

Stations

Nearby Weather Stations

Station Location Temp. Windchill Dew Point Humidity Wind Precip. Elev Updated Type